sensor_id;sensor_type;location;lat;lon;timestamp;temperature;humidity
54540;SHT30;40438;52.992;18.604;2023-07-13T00:02:07;19.14;87.21
54540;SHT30;40438;52.992;18.604;2023-07-13T00:04:34;19.14;87.24
54540;SHT30;40438;52.992;18.604;2023-07-13T00:07:00;19.14;87.26
54540;SHT30;40438;52.992;18.604;2023-07-13T00:09:26;19.09;87.36
54540;SHT30;40438;52.992;18.604;2023-07-13T00:11:54;19.09;87.35
54540;SHT30;40438;52.992;18.604;2023-07-13T00:14:21;19.08;87.31
54540;SHT30;40438;52.992;18.604;2023-07-13T00:16:47;19.01;87.16
54540;SHT30;40438;52.992;18.604;2023-07-13T00:19:13;19.01;87.23
54540;SHT30;40438;52.992;18.604;2023-07-13T00:21:41;19.01;87.23
54540;SHT30;40438;52.992;18.604;2023-07-13T00:24:08;18.96;87.31
54540;SHT30;40438;52.992;18.604;2023-07-13T00:26:35;18.92;87.31
54540;SHT30;40438;52.992;18.604;2023-07-13T00:29:02;18.91;87.26
54540;SHT30;40438;52.992;18.604;2023-07-13T00:31:29;18.87;87.12
54540;SHT30;40438;52.992;18.604;2023-07-13T00:33:54;18.78;87.03
54540;SHT30;40438;52.992;18.604;2023-07-13T00:36:20;18.78;87.21
54540;SHT30;40438;52.992;18.604;2023-07-13T00:38:47;18.74;87.20
54540;SHT30;40438;52.992;18.604;2023-07-13T00:41:13;18.80;87.06
54540;SHT30;40438;52.992;18.604;2023-07-13T00:43:40;18.78;86.98
54540;SHT30;40438;52.992;18.604;2023-07-13T00:46:16;18.83;86.78
54540;SHT30;40438;52.992;18.604;2023-07-13T00:48:43;18.81;86.71
54540;SHT30;40438;52.992;18.604;2023-07-13T00:51:11;18.74;86.68
54540;SHT30;40438;52.992;18.604;2023-07-13T00:53:40;18.75;86.69
54540;SHT30;40438;52.992;18.604;2023-07-13T00:56:08;18.74;86.65
54540;SHT30;40438;52.992;18.604;2023-07-13T00:58:35;18.74;86.62
54540;SHT30;40438;52.992;18.604;2023-07-13T01:01:03;18.78;86.66
54540;SHT30;40438;52.992;18.604;2023-07-13T01:03:29;18.78;86.82
54540;SHT30;40438;52.992;18.604;2023-07-13T01:05:55;18.80;86.78
54540;SHT30;40438;52.992;18.604;2023-07-13T01:08:21;18.78;86.88
54540;SHT30;40438;52.992;18.604;2023-07-13T01:10:52;18.81;86.82
54540;SHT30;40438;52.992;18.604;2023-07-13T01:13:19;18.81;87.12
54540;SHT30;40438;52.992;18.604;2023-07-13T01:15:47;18.85;87.21
54540;SHT30;40438;52.992;18.604;2023-07-13T01:18:15;18.83;87.27
54540;SHT30;40438;52.992;18.604;2023-07-13T01:20:47;18.84;87.36
54540;SHT30;40438;52.992;18.604;2023-07-13T01:23:13;18.87;87.44
54540;SHT30;40438;52.992;18.604;2023-07-13T01:25:39;18.84;87.42
54540;SHT30;40438;52.992;18.604;2023-07-13T01:28:06;18.84;87.38
54540;SHT30;40438;52.992;18.604;2023-07-13T01:30:32;18.83;87.37
54540;SHT30;40438;52.992;18.604;2023-07-13T01:32:58;18.84;87.29
54540;SHT30;40438;52.992;18.604;2023-07-13T01:35:26;18.85;87.24
54540;SHT30;40438;52.992;18.604;2023-07-13T01:37:53;18.81;87.01
54540;SHT30;40438;52.992;18.604;2023-07-13T01:40:19;18.80;86.93
54540;SHT30;40438;52.992;18.604;2023-07-13T01:42:45;18.75;86.89
54540;SHT30;40438;52.992;18.604;2023-07-13T01:45:11;18.77;86.81
54540;SHT30;40438;52.992;18.604;2023-07-13T01:47:36;18.74;86.74
54540;SHT30;40438;52.992;18.604;2023-07-13T01:50:03;18.71;86.73
54540;SHT30;40438;52.992;18.604;2023-07-13T01:52:29;18.74;86.29
54540;SHT30;40438;52.992;18.604;2023-07-13T01:54:56;18.77;86.19
54540;SHT30;40438;52.992;18.604;2023-07-13T01:57:22;18.77;86.18
54540;SHT30;40438;52.992;18.604;2023-07-13T01:59:47;18.81;85.87
54540;SHT30;40438;52.992;18.604;2023-07-13T02:02:13;18.80;85.86
54540;SHT30;40438;52.992;18.604;2023-07-13T02:04:39;18.77;85.97
54540;SHT30;40438;52.992;18.604;2023-07-13T02:07:05;18.74;86.06
54540;SHT30;40438;52.992;18.604;2023-07-13T02:09:31;18.70;86.05
54540;SHT30;40438;52.992;18.604;2023-07-13T02:11:58;18.65;86.17
54540;SHT30;40438;52.992;18.604;2023-07-13T02:14:30;18.57;86.32
54540;SHT30;40438;52.992;18.604;2023-07-13T02:16:56;18.47;86.33
54540;SHT30;40438;52.992;18.604;2023-07-13T02:19:21;18.47;86.39
54540;SHT30;40438;52.992;18.604;2023-07-13T02:21:47;18.39;86.55
54540;SHT30;40438;52.992;18.604;2023-07-13T02:24:13;18.42;86.62
54540;SHT30;40438;52.992;18.604;2023-07-13T02:26:41;18.37;86.68
54540;SHT30;40438;52.992;18.604;2023-07-13T02:29:09;18.37;86.72
54540;SHT30;40438;52.992;18.604;2023-07-13T02:31:34;18.36;86.99
54540;SHT30;40438;52.992;18.604;2023-07-13T02:34:00;18.36;86.94
54540;SHT30;40438;52.992;18.604;2023-07-13T02:36:26;18.36;86.94
54540;SHT30;40438;52.992;18.604;2023-07-13T02:38:52;18.37;86.95
54540;SHT30;40438;52.992;18.604;2023-07-13T02:41:17;18.39;86.94
54540;SHT30;40438;52.992;18.604;2023-07-13T02:43:44;18.36;86.95
54540;SHT30;40438;52.992;18.604;2023-07-13T02:46:11;18.37;87.00
54540;SHT30;40438;52.992;18.604;2023-07-13T02:48:38;18.39;86.98
54540;SHT30;40438;52.992;18.604;2023-07-13T02:51:05;18.39;86.95
54540;SHT30;40438;52.992;18.604;2023-07-13T02:53:31;18.39;86.85
54540;SHT30;40438;52.992;18.604;2023-07-13T02:55:57;18.39;86.86
54540;SHT30;40438;52.992;18.604;2023-07-13T02:58:23;18.39;86.80
54540;SHT30;40438;52.992;18.604;2023-07-13T03:00:48;18.36;86.84
54540;SHT30;40438;52.992;18.604;2023-07-13T03:03:16;18.33;86.85
54540;SHT30;40438;52.992;18.604;2023-07-13T03:05:44;18.34;86.85
54540;SHT30;40438;52.992;18.604;2023-07-13T03:08:10;18.34;86.80
54540;SHT30;40438;52.992;18.604;2023-07-13T03:10:36;18.34;86.86
54540;SHT30;40438;52.992;18.604;2023-07-13T03:13:03;18.36;86.84
54540;SHT30;40438;52.992;18.604;2023-07-13T03:15:29;18.37;86.85
54540;SHT30;40438;52.992;18.604;2023-07-13T03:17:57;18.37;86.85
54540;SHT30;40438;52.992;18.604;2023-07-13T03:20:24;18.39;86.82
54540;SHT30;40438;52.992;18.604;2023-07-13T03:22:50;18.40;86.79
54540;SHT30;40438;52.992;18.604;2023-07-13T03:25:17;18.40;86.74
54540;SHT30;40438;52.992;18.604;2023-07-13T03:27:43;18.39;86.77
54540;SHT30;40438;52.992;18.604;2023-07-13T03:30:10;18.36;86.86
54540;SHT30;40438;52.992;18.604;2023-07-13T03:32:36;18.40;86.88
54540;SHT30;40438;52.992;18.604;2023-07-13T03:35:02;18.40;86.83
54540;SHT30;40438;52.992;18.604;2023-07-13T03:37:32;18.44;86.65
54540;SHT30;40438;52.992;18.604;2023-07-13T03:39:57;18.47;86.53
54540;SHT30;40438;52.992;18.604;2023-07-13T03:42:25;18.49;86.57
54540;SHT30;40438;52.992;18.604;2023-07-13T03:44:51;18.52;86.69
54540;SHT30;40438;52.992;18.604;2023-07-13T03:47:16;18.60;86.55
54540;SHT30;40438;52.992;18.604;2023-07-13T03:49:44;18.61;86.43
54540;SHT30;40438;52.992;18.604;2023-07-13T03:52:10;18.67;86.19
54540;SHT30;40438;52.992;18.604;2023-07-13T03:54:37;18.70;86.09
54540;SHT30;40438;52.992;18.604;2023-07-13T03:57:03;18.77;86.15
54540;SHT30;40438;52.992;18.604;2023-07-13T03:59:31;18.83;86.07
54540;SHT30;40438;52.992;18.604;2023-07-13T04:01:57;18.81;86.07
54540;SHT30;40438;52.992;18.604;2023-07-13T04:04:23;18.85;86.09
54540;SHT30;40438;52.992;18.604;2023-07-13T04:06:49;18.88;86.06
54540;SHT30;40438;52.992;18.604;2023-07-13T04:09:15;18.92;86.08
54540;SHT30;40438;52.992;18.604;2023-07-13T04:11:43;18.92;86.04
54540;SHT30;40438;52.992;18.604;2023-07-13T04:14:08;18.96;86.06
54540;SHT30;40438;52.992;18.604;2023-07-13T04:16:34;19.01;85.89
54540;SHT30;40438;52.992;18.604;2023-07-13T04:19:00;19.04;85.71
54540;SHT30;40438;52.992;18.604;2023-07-13T04:21:26;19.05;85.67
54540;SHT30;40438;52.992;18.604;2023-07-13T04:23:52;19.09;85.54
54540;SHT30;40438;52.992;18.604;2023-07-13T04:26:18;19.12;85.22
54540;SHT30;40438;52.992;18.604;2023-07-13T04:28:45;19.12;85.14
54540;SHT30;40438;52.992;18.604;2023-07-13T04:31:11;19.09;85.35
54540;SHT30;40438;52.992;18.604;2023-07-13T04:33:37;19.11;85.31
54540;SHT30;40438;52.992;18.604;2023-07-13T04:36:03;19.12;85.31
54540;SHT30;40438;52.992;18.604;2023-07-13T04:38:30;19.12;85.14
54540;SHT30;40438;52.992;18.604;2023-07-13T04:40:57;19.09;85.30
54540;SHT30;40438;52.992;18.604;2023-07-13T04:43:24;19.06;85.43
54540;SHT30;40438;52.992;18.604;2023-07-13T04:45:52;19.09;85.38
54540;SHT30;40438;52.992;18.604;2023-07-13T04:48:18;19.05;85.53
54540;SHT30;40438;52.992;18.604;2023-07-13T04:50:44;19.04;85.60
54540;SHT30;40438;52.992;18.604;2023-07-13T04:53:09;19.06;85.55
54540;SHT30;40438;52.992;18.604;2023-07-13T04:55:35;19.08;85.49
54540;SHT30;40438;52.992;18.604;2023-07-13T04:58:01;19.15;85.42
54540;SHT30;40438;52.992;18.604;2023-07-13T05:00:27;19.16;85.20
54540;SHT30;40438;52.992;18.604;2023-07-13T05:02:56;19.21;85.21
54540;SHT30;40438;52.992;18.604;2023-07-13T05:05:22;19.25;84.92
54540;SHT30;40438;52.992;18.604;2023-07-13T05:07:47;19.31;84.44
54540;SHT30;40438;52.992;18.604;2023-07-13T05:10:13;19.39;84.17
54540;SHT30;40438;52.992;18.604;2023-07-13T05:12:39;19.45;84.26
54540;SHT30;40438;52.992;18.604;2023-07-13T05:15:06;19.47;84.28
54540;SHT30;40438;52.992;18.604;2023-07-13T05:17:32;19.49;84.28
54540;SHT30;40438;52.992;18.604;2023-07-13T05:19:59;19.52;84.29
54540;SHT30;40438;52.992;18.604;2023-07-13T05:22:25;19.59;84.21
54540;SHT30;40438;52.992;18.604;2023-07-13T05:24:51;19.62;84.13
54540;SHT30;40438;52.992;18.604;2023-07-13T05:27:17;19.74;83.76
54540;SHT30;40438;52.992;18.604;2023-07-13T05:29:42;19.80;83.75
54540;SHT30;40438;52.992;18.604;2023-07-13T05:32:08;19.93;83.57
54540;SHT30;40438;52.992;18.604;2023-07-13T05:34:34;20.03;83.25
54540;SHT30;40438;52.992;18.604;2023-07-13T05:37:01;20.11;83.06
54540;SHT30;40438;52.992;18.604;2023-07-13T05:39:27;20.20;82.87
54540;SHT30;40438;52.992;18.604;2023-07-13T05:41:53;20.25;82.46
54540;SHT30;40438;52.992;18.604;2023-07-13T05:44:19;20.32;81.71
54540;SHT30;40438;52.992;18.604;2023-07-13T05:46:45;20.39;81.77
54540;SHT30;40438;52.992;18.604;2023-07-13T05:49:10;20.41;81.49
54540;SHT30;40438;52.992;18.604;2023-07-13T05:51:36;20.49;81.03
54540;SHT30;40438;52.992;18.604;2023-07-13T05:54:04;20.52;80.24
54540;SHT30;40438;52.992;18.604;2023-07-13T05:56:29;20.57;80.05
54540;SHT30;40438;52.992;18.604;2023-07-13T05:58:56;20.59;79.71
54540;SHT30;40438;52.992;18.604;2023-07-13T06:01:21;20.62;79.25
54540;SHT30;40438;52.992;18.604;2023-07-13T06:03:47;20.62;79.04
54540;SHT30;40438;52.992;18.604;2023-07-13T06:06:13;20.63;78.22
54540;SHT30;40438;52.992;18.604;2023-07-13T06:08:39;20.70;78.48
54540;SHT30;40438;52.992;18.604;2023-07-13T06:11:09;20.76;78.25
54540;SHT30;40438;52.992;18.604;2023-07-13T06:13:35;20.84;77.89
54540;SHT30;40438;52.992;18.604;2023-07-13T06:16:02;20.93;77.22
54540;SHT30;40438;52.992;18.604;2023-07-13T06:18:28;21.04;77.06
54540;SHT30;40438;52.992;18.604;2023-07-13T06:20:53;21.08;76.69
54540;SHT30;40438;52.992;18.604;2023-07-13T06:23:19;21.18;74.66
54540;SHT30;40438;52.992;18.604;2023-07-13T06:25:45;21.26;74.51
54540;SHT30;40438;52.992;18.604;2023-07-13T06:28:12;21.27;74.49
54540;SHT30;40438;52.992;18.604;2023-07-13T06:30:38;21.30;74.57
54540;SHT30;40438;52.992;18.604;2023-07-13T06:33:04;21.32;74.63
54540;SHT30;40438;52.992;18.604;2023-07-13T06:35:29;21.35;74.61
54540;SHT30;40438;52.992;18.604;2023-07-13T06:37:55;21.35;74.08
54540;SHT30;40438;52.992;18.604;2023-07-13T06:40:21;21.41;73.98
54540;SHT30;40438;52.992;18.604;2023-07-13T06:42:47;21.47;74.70
54540;SHT30;40438;52.992;18.604;2023-07-13T06:45:14;21.49;74.95
54540;SHT30;40438;52.992;18.604;2023-07-13T06:47:40;21.54;74.87
54540;SHT30;40438;52.992;18.604;2023-07-13T06:50:06;21.55;74.33
54540;SHT30;40438;52.992;18.604;2023-07-13T06:52:32;21.58;73.89
54540;SHT30;40438;52.992;18.604;2023-07-13T06:54:58;21.61;73.76
54540;SHT30;40438;52.992;18.604;2023-07-13T06:57:23;21.62;73.37
54540;SHT30;40438;52.992;18.604;2023-07-13T06:59:49;21.63;73.11
54540;SHT30;40438;52.992;18.604;2023-07-13T07:02:16;21.63;72.54
54540;SHT30;40438;52.992;18.604;2023-07-13T07:04:42;21.71;72.36
54540;SHT30;40438;52.992;18.604;2023-07-13T07:07:08;21.75;71.94
54540;SHT30;40438;52.992;18.604;2023-07-13T07:09:34;21.78;72.41
54540;SHT30;40438;52.992;18.604;2023-07-13T07:11:59;21.80;72.49
54540;SHT30;40438;52.992;18.604;2023-07-13T07:14:25;21.89;72.65
54540;SHT30;40438;52.992;18.604;2023-07-13T07:16:51;21.96;72.79
54540;SHT30;40438;52.992;18.604;2023-07-13T07:19:18;22.00;72.65
54540;SHT30;40438;52.992;18.604;2023-07-13T07:21:44;22.06;71.66
54540;SHT30;40438;52.992;18.604;2023-07-13T07:24:10;22.16;70.76
54540;SHT30;40438;52.992;18.604;2023-07-13T07:26:35;22.26;70.65
54540;SHT30;40438;52.992;18.604;2023-07-13T07:29:01;22.38;70.47
54540;SHT30;40438;52.992;18.604;2023-07-13T07:31:27;22.51;70.43
54540;SHT30;40438;52.992;18.604;2023-07-13T07:33:53;22.57;68.95
54540;SHT30;40438;52.992;18.604;2023-07-13T07:36:20;22.67;68.47
54540;SHT30;40438;52.992;18.604;2023-07-13T07:38:46;22.65;67.95
54540;SHT30;40438;52.992;18.604;2023-07-13T07:41:13;22.75;67.93
54540;SHT30;40438;52.992;18.604;2023-07-13T07:43:39;22.78;68.67
54540;SHT30;40438;52.992;18.604;2023-07-13T07:46:05;22.85;68.50
54540;SHT30;40438;52.992;18.604;2023-07-13T07:48:31;22.87;68.35
54540;SHT30;40438;52.992;18.604;2023-07-13T07:50:57;22.91;68.00
54540;SHT30;40438;52.992;18.604;2023-07-13T07:53:24;22.95;67.69
54540;SHT30;40438;52.992;18.604;2023-07-13T07:55:50;22.94;67.19
54540;SHT30;40438;52.992;18.604;2023-07-13T07:58:15;22.98;66.51
54540;SHT30;40438;52.992;18.604;2023-07-13T08:00:41;22.98;66.16
54540;SHT30;40438;52.992;18.604;2023-07-13T08:03:07;23.00;66.24
54540;SHT30;40438;52.992;18.604;2023-07-13T08:05:35;22.99;65.40
54540;SHT30;40438;52.992;18.604;2023-07-13T08:08:01;23.00;64.46
54540;SHT30;40438;52.992;18.604;2023-07-13T08:10:28;23.03;65.08
54540;SHT30;40438;52.992;18.604;2023-07-13T08:12:54;23.06;64.70
54540;SHT30;40438;52.992;18.604;2023-07-13T08:15:20;23.09;64.72
54540;SHT30;40438;52.992;18.604;2023-07-13T08:17:47;23.12;64.46
54540;SHT30;40438;52.992;18.604;2023-07-13T08:20:12;23.19;63.71
54540;SHT30;40438;52.992;18.604;2023-07-13T08:22:38;23.15;64.12
54540;SHT30;40438;52.992;18.604;2023-07-13T08:25:04;23.18;64.75
54540;SHT30;40438;52.992;18.604;2023-07-13T08:27:32;23.18;64.79
54540;SHT30;40438;52.992;18.604;2023-07-13T08:29:58;23.15;64.20
54540;SHT30;40438;52.992;18.604;2023-07-13T08:32:24;23.27;64.14
54540;SHT30;40438;52.992;18.604;2023-07-13T08:34:50;23.14;64.66
54540;SHT30;40438;52.992;18.604;2023-07-13T08:37:17;23.00;65.43
54540;SHT30;40438;52.992;18.604;2023-07-13T08:39:43;23.02;65.58
54540;SHT30;40438;52.992;18.604;2023-07-13T08:42:14;23.08;64.39
54540;SHT30;40438;52.992;18.604;2023-07-13T08:44:52;23.02;64.47
54540;SHT30;40438;52.992;18.604;2023-07-13T08:47:22;22.95;64.12
54540;SHT30;40438;52.992;18.604;2023-07-13T08:49:49;23.00;63.83
54540;SHT30;40438;52.992;18.604;2023-07-13T08:52:26;23.08;63.26
54540;SHT30;40438;52.992;18.604;2023-07-13T08:54:56;23.12;63.33
54540;SHT30;40438;52.992;18.604;2023-07-13T08:57:30;23.23;62.80
54540;SHT30;40438;52.992;18.604;2023-07-13T08:59:58;23.32;62.85
54540;SHT30;40438;52.992;18.604;2023-07-13T09:02:26;23.40;63.25
54540;SHT30;40438;52.992;18.604;2023-07-13T09:04:56;23.50;62.96
54540;SHT30;40438;52.992;18.604;2023-07-13T09:07:33;23.56;63.66
54540;SHT30;40438;52.992;18.604;2023-07-13T09:10:08;23.61;63.92
54540;SHT30;40438;52.992;18.604;2023-07-13T09:12:50;23.71;63.52
54540;SHT30;40438;52.992;18.604;2023-07-13T09:15:23;23.80;62.90
54540;SHT30;40438;52.992;18.604;2023-07-13T09:17:52;23.93;62.66
54540;SHT30;40438;52.992;18.604;2023-07-13T09:20:25;24.01;61.90
54540;SHT30;40438;52.992;18.604;2023-07-13T09:22:52;24.06;63.03
54540;SHT30;40438;52.992;18.604;2023-07-13T09:25:24;24.19;62.17
54540;SHT30;40438;52.992;18.604;2023-07-13T09:27:53;24.31;61.50
54540;SHT30;40438;52.992;18.604;2023-07-13T09:30:33;24.46;57.94
54540;SHT30;40438;52.992;18.604;2023-07-13T09:32:59;24.66;55.81
54540;SHT30;40438;52.992;18.604;2023-07-13T09:35:27;24.76;56.97
54540;SHT30;40438;52.992;18.604;2023-07-13T09:37:57;24.84;58.15
54540;SHT30;40438;52.992;18.604;2023-07-13T09:40:27;24.96;57.81
54540;SHT30;40438;52.992;18.604;2023-07-13T09:42:54;25.01;56.51
54540;SHT30;40438;52.992;18.604;2023-07-13T09:45:29;25.10;56.94
54540;SHT30;40438;52.992;18.604;2023-07-13T09:48:05;25.14;56.61
54540;SHT30;40438;52.992;18.604;2023-07-13T09:50:31;25.14;54.45
54540;SHT30;40438;52.992;18.604;2023-07-13T09:52:57;25.17;55.92
54540;SHT30;40438;52.992;18.604;2023-07-13T09:55:25;25.20;56.44
54540;SHT30;40438;52.992;18.604;2023-07-13T09:57:52;25.17;54.38
54540;SHT30;40438;52.992;18.604;2023-07-13T10:00:23;25.21;54.04
54540;SHT30;40438;52.992;18.604;2023-07-13T10:02:59;25.25;54.30
54540;SHT30;40438;52.992;18.604;2023-07-13T10:05:25;25.31;54.52
54540;SHT30;40438;52.992;18.604;2023-07-13T10:07:51;25.45;53.88
54540;SHT30;40438;52.992;18.604;2023-07-13T10:10:19;25.59;52.33
54540;SHT30;40438;52.992;18.604;2023-07-13T10:12:46;25.72;52.45
54540;SHT30;40438;52.992;18.604;2023-07-13T10:15:17;25.86;53.17
54540;SHT30;40438;52.992;18.604;2023-07-13T10:17:43;25.94;52.27
54540;SHT30;40438;52.992;18.604;2023-07-13T10:20:11;26.03;50.78
54540;SHT30;40438;52.992;18.604;2023-07-13T10:22:42;25.92;50.63
54540;SHT30;40438;52.992;18.604;2023-07-13T10:25:15;25.83;50.86
54540;SHT30;40438;52.992;18.604;2023-07-13T10:27:42;25.79;51.03
54540;SHT30;40438;52.992;18.604;2023-07-13T10:30:13;25.81;51.31
54540;SHT30;40438;52.992;18.604;2023-07-13T10:32:41;25.76;52.65
54540;SHT30;40438;52.992;18.604;2023-07-13T10:35:11;25.79;50.33
54540;SHT30;40438;52.992;18.604;2023-07-13T10:37:43;25.62;50.75
54540;SHT30;40438;52.992;18.604;2023-07-13T10:40:14;25.51;52.05
54540;SHT30;40438;52.992;18.604;2023-07-13T10:42:44;25.43;53.54
54540;SHT30;40438;52.992;18.604;2023-07-13T10:45:15;25.38;54.35
54540;SHT30;40438;52.992;18.604;2023-07-13T10:47:42;25.28;55.11
54540;SHT30;40438;52.992;18.604;2023-07-13T10:50:17;25.22;54.81
54540;SHT30;40438;52.992;18.604;2023-07-13T10:52:46;25.01;55.03
54540;SHT30;40438;52.992;18.604;2023-07-13T10:55:32;24.73;55.89
54540;SHT30;40438;52.992;18.604;2023-07-13T10:58:00;24.43;58.00
54540;SHT30;40438;52.992;18.604;2023-07-13T11:00:26;24.09;60.85
54540;SHT30;40438;52.992;18.604;2023-07-13T11:02:56;23.73;63.47
54540;SHT30;40438;52.992;18.604;2023-07-13T11:05:29;23.23;64.75
54540;SHT30;40438;52.992;18.604;2023-07-13T11:08:03;23.02;64.41
54540;SHT30;40438;52.992;18.604;2023-07-13T11:10:50;22.68;66.74
54540;SHT30;40438;52.992;18.604;2023-07-13T11:13:36;22.53;67.05
54540;SHT30;40438;52.992;18.604;2023-07-13T11:16:12;22.24;69.25
54540;SHT30;40438;52.992;18.604;2023-07-13T11:18:38;22.10;70.70
54540;SHT30;40438;52.992;18.604;2023-07-13T11:21:16;21.98;71.51
54540;SHT30;40438;52.992;18.604;2023-07-13T11:23:44;21.89;70.59
54540;SHT30;40438;52.992;18.604;2023-07-13T11:26:39;21.61;73.13
54540;SHT30;40438;52.992;18.604;2023-07-13T11:29:08;21.62;71.87
54540;SHT30;40438;52.992;18.604;2023-07-13T11:31:35;21.59;72.68
54540;SHT30;40438;52.992;18.604;2023-07-13T11:34:00;21.57;73.16
54540;SHT30;40438;52.992;18.604;2023-07-13T11:36:35;21.55;73.68
54540;SHT30;40438;52.992;18.604;2023-07-13T11:39:04;21.47;74.41
54540;SHT30;40438;52.992;18.604;2023-07-13T11:41:35;21.47;75.52
54540;SHT30;40438;52.992;18.604;2023-07-13T11:44:12;21.38;75.06
54540;SHT30;40438;52.992;18.604;2023-07-13T11:46:38;21.18;75.26
54540;SHT30;40438;52.992;18.604;2023-07-13T11:49:05;21.34;74.93
54540;SHT30;40438;52.992;18.604;2023-07-13T11:51:34;21.49;76.22
54540;SHT30;40438;52.992;18.604;2023-07-13T11:54:03;21.59;76.84
54540;SHT30;40438;52.992;18.604;2023-07-13T11:56:30;21.71;77.28
54540;SHT30;40438;52.992;18.604;2023-07-13T11:58:57;21.83;76.84
54540;SHT30;40438;52.992;18.604;2023-07-13T12:01:25;21.99;74.83
54540;SHT30;40438;52.992;18.604;2023-07-13T12:03:52;22.19;75.54
54540;SHT30;40438;52.992;18.604;2023-07-13T12:06:29;22.30;74.41
54540;SHT30;40438;52.992;18.604;2023-07-13T12:09:00;22.60;72.56
54540;SHT30;40438;52.992;18.604;2023-07-13T12:11:27;22.81;71.64
54540;SHT30;40438;52.992;18.604;2023-07-13T12:13:53;22.95;69.92
54540;SHT30;40438;52.992;18.604;2023-07-13T12:16:25;23.08;71.00
54540;SHT30;40438;52.992;18.604;2023-07-13T12:18:53;23.30;72.35
54540;SHT30;40438;52.992;18.604;2023-07-13T12:21:19;23.46;69.47
54540;SHT30;40438;52.992;18.604;2023-07-13T12:23:49;23.77;66.41
54540;SHT30;40438;52.992;18.604;2023-07-13T12:26:17;24.05;68.22
54540;SHT30;40438;52.992;18.604;2023-07-13T12:28:46;24.34;66.25
54540;SHT30;40438;52.992;18.604;2023-07-13T12:31:24;24.64;62.95
54540;SHT30;40438;52.992;18.604;2023-07-13T12:33:56;25.06;66.36
54540;SHT30;40438;52.992;18.604;2023-07-13T12:36:22;25.46;66.06
54540;SHT30;40438;52.992;18.604;2023-07-13T12:38:48;25.88;63.60
54540;SHT30;40438;52.992;18.604;2023-07-13T12:41:15;26.31;61.55
54540;SHT30;40438;52.992;18.604;2023-07-13T12:43:41;26.72;52.98
54540;SHT30;40438;52.992;18.604;2023-07-13T12:46:17;26.78;51.67
54540;SHT30;40438;52.992;18.604;2023-07-13T12:48:43;26.84;53.42
54540;SHT30;40438;52.992;18.604;2023-07-13T12:51:12;26.77;53.60
54540;SHT30;40438;52.992;18.604;2023-07-13T12:53:40;26.71;51.67
54540;SHT30;40438;52.992;18.604;2023-07-13T12:56:17;26.84;51.95
54540;SHT30;40438;52.992;18.604;2023-07-13T12:58:44;26.61;50.18
54540;SHT30;40438;52.992;18.604;2023-07-13T13:01:13;26.73;51.21
54540;SHT30;40438;52.992;18.604;2023-07-13T13:03:44;26.77;52.96
54540;SHT30;40438;52.992;18.604;2023-07-13T13:06:21;26.73;50.61
54540;SHT30;40438;52.992;18.604;2023-07-13T13:08:49;26.62;49.83
54540;SHT30;40438;52.992;18.604;2023-07-13T13:11:17;26.48;49.24
54540;SHT30;40438;52.992;18.604;2023-07-13T13:13:43;26.16;49.62
54540;SHT30;40438;52.992;18.604;2023-07-13T13:16:12;26.11;49.52
54540;SHT30;40438;52.992;18.604;2023-07-13T13:18:39;26.02;49.06
54540;SHT30;40438;52.992;18.604;2023-07-13T13:21:05;25.72;50.16
54540;SHT30;40438;52.992;18.604;2023-07-13T13:23:31;25.45;51.51
54540;SHT30;40438;52.992;18.604;2023-07-13T13:25:57;25.45;52.51
54540;SHT30;40438;52.992;18.604;2023-07-13T13:28:24;25.58;52.84
54540;SHT30;40438;52.992;18.604;2023-07-13T13:30:51;25.39;54.20
54540;SHT30;40438;52.992;18.604;2023-07-13T13:33:19;25.31;55.30
54540;SHT30;40438;52.992;18.604;2023-07-13T13:35:46;25.21;54.34
54540;SHT30;40438;52.992;18.604;2023-07-13T13:38:12;25.14;54.76
54540;SHT30;40438;52.992;18.604;2023-07-13T13:40:39;25.08;55.39
54540;SHT30;40438;52.992;18.604;2023-07-13T13:43:13;25.01;55.70
54540;SHT30;40438;52.992;18.604;2023-07-13T13:45:41;24.74;55.72
54540;SHT30;40438;52.992;18.604;2023-07-13T13:48:07;24.66;56.82
54540;SHT30;40438;52.992;18.604;2023-07-13T13:50:38;24.15;58.81
54540;SHT30;40438;52.992;18.604;2023-07-13T13:53:04;23.68;60.83
54540;SHT30;40438;52.992;18.604;2023-07-13T13:55:30;23.43;61.73
54540;SHT30;40438;52.992;18.604;2023-07-13T13:57:56;23.33;62.40
54540;SHT30;40438;52.992;18.604;2023-07-13T14:00:22;23.23;61.79
54540;SHT30;40438;52.992;18.604;2023-07-13T14:02:49;23.06;62.98
54540;SHT30;40438;52.992;18.604;2023-07-13T14:05:17;23.11;63.43
54540;SHT30;40438;52.992;18.604;2023-07-13T14:07:45;23.03;63.59
54540;SHT30;40438;52.992;18.604;2023-07-13T14:10:13;23.42;63.42
54540;SHT30;40438;52.992;18.604;2023-07-13T14:12:39;23.80;62.47
54540;SHT30;40438;52.992;18.604;2023-07-13T14:15:08;24.18;63.25
54540;SHT30;40438;52.992;18.604;2023-07-13T14:17:38;24.72;56.31
54540;SHT30;40438;52.992;18.604;2023-07-13T14:20:10;25.32;56.57
54540;SHT30;40438;52.992;18.604;2023-07-13T14:22:36;25.89;52.86
54540;SHT30;40438;52.992;18.604;2023-07-13T14:25:02;26.17;51.53
54540;SHT30;40438;52.992;18.604;2023-07-13T14:27:28;26.54;52.37
54540;SHT30;40438;52.992;18.604;2023-07-13T14:29:54;26.82;49.60
54540;SHT30;40438;52.992;18.604;2023-07-13T14:32:20;27.06;51.61
54540;SHT30;40438;52.992;18.604;2023-07-13T14:34:45;27.34;51.53
54540;SHT30;40438;52.992;18.604;2023-07-13T14:37:14;27.60;50.75
54540;SHT30;40438;52.992;18.604;2023-07-13T14:39:42;27.85;45.36
54540;SHT30;40438;52.992;18.604;2023-07-13T14:42:09;28.00;47.66
54540;SHT30;40438;52.992;18.604;2023-07-13T14:44:35;28.08;48.01
54540;SHT30;40438;52.992;18.604;2023-07-13T14:47:03;28.08;45.78
54540;SHT30;40438;52.992;18.604;2023-07-13T14:49:32;28.53;43.94
54540;SHT30;40438;52.992;18.604;2023-07-13T14:52:02;28.76;43.27
54540;SHT30;40438;52.992;18.604;2023-07-13T14:54:30;28.93;42.54
54540;SHT30;40438;52.992;18.604;2023-07-13T14:56:56;28.97;39.42
54540;SHT30;40438;52.992;18.604;2023-07-13T14:59:22;28.79;39.75
54540;SHT30;40438;52.992;18.604;2023-07-13T15:01:48;29.30;39.78
54540;SHT30;40438;52.992;18.604;2023-07-13T15:04:15;29.25;40.95
54540;SHT30;40438;52.992;18.604;2023-07-13T15:06:54;28.88;40.06
54540;SHT30;40438;52.992;18.604;2023-07-13T15:09:21;29.03;40.10
54540;SHT30;40438;52.992;18.604;2023-07-13T15:11:48;28.31;41.70
54540;SHT30;40438;52.992;18.604;2023-07-13T15:14:13;27.91;43.21
54540;SHT30;40438;52.992;18.604;2023-07-13T15:16:39;27.92;41.14
54540;SHT30;40438;52.992;18.604;2023-07-13T15:19:05;27.71;41.95